< < Back
Terminal Aerodrome Forecast


Current Version              Previous Versions:   1  2  3  4  5  6  7  8  9  

Terminal Aerodrome Forecast

185
FTUS42 KCAE 191400 AAA
TAFCAE
TAF AMD
KCAE 191458Z 1915/2012 03012G20KT 6SM -RA BR SCT009 OVC012
      TEMPO 1915/1919 4SM -DZ BR BKN012
     FM200500 04012G23KT P6SM SCT007 OVC015=



Latest METAR

334
SAUS80 KWBC 191700
MTRCAE
METAR KCAE 191656Z 03013G19KT 4SM BR OVC013 14/12 A3006 RMK AO2 SLP177
T01440122


USA.gov is the U.S. government's official web portal to all federal, state and local government web resources and services.